Latest Weather Observations for Adelaide (Kent Town)

IDS60901

Issued at 12:11 pm CDT Thursday 23 January 2020 (issued every 10 minutes, with the page automatically refreshed every 10 minutes)

About weather observations | Map of Adelaide area stations | Latest observations for Adelaide area | Other Formats
Station Details ID: 023090 Name: KENT TOWN Lat: -34.92 Lon: 138.62 Height: 48.0 m
Data from the previous 72 hours. | See also: Recent months at Adelaide (Kent Town)
Date/Time
CDT
Temp
°C
App
Temp
°C
Dew
Point
°C
Rel
Hum
%
Delta-T
°C
Wind Press
QNH
hPa
Press
MSL
hPa
Rain since
9am
mm
Dir  Spd
km/h
Gust
km/h
Spd
kts
Gust
kts
23/12:00pm 17.9 13.7 7.5 50 5.3 WSW 19 37 10 20 1004.9 1004.6 0.0
23/11:38am 17.9 11.8 6.7 48 5.6 WSW 28 46 15 25 1004.5 1004.2 0.0
23/11:30am 18.8 13.1 6.9 46 6.0 W 26 41 14 22 1004.4 1004.1 0.0
23/11:10am 18.4 12.3 6.4 45 6.0 WSW 28 50 15 27 1004.0 1003.7 0.0
23/11:00am 19.1 13.6 7.4 46 6.0 WSW 26 43 14 23 1003.6 1003.3 0.0
23/10:49am 18.8 12.8 7.2 47 5.9 WSW 28 52 15 28 1003.5 1003.2 0.0
23/10:30am 18.5 13.6 8.5 52 5.2 WSW 24 50 13 27 1003.3 1003.0 0.0
23/10:25am 18.5 12.8 8.5 52 5.2 WSW 28 50 15 27 1003.2 1002.9 0.0
23/10:00am 18.3 13.2 7.8 50 5.4 W 24 43 13 23 1002.9 1002.6 0.0
23/09:30am 17.6 13.5 10.1 61 4.0 W 22 39 12 21 1002.6 1002.3 0.0
23/09:00am 16.9 12.5 10.4 65 3.5 W 24 46 13 25 1002.1 1001.8 6.6
23/08:30am 15.9 12.7 11.3 74 2.5 W 19 39 10 21 1001.6 1001.3 6.6
23/08:00am 15.1 12.1 12.4 84 1.5 W 20 43 11 23 1001.2 1000.9 6.4
23/07:30am 14.4 11.6 13.3 93 0.6 W 20 37 11 20 1000.7 1000.4 6.4
23/07:14am 14.8 11.3 13.4 91 0.8 W 24 52 13 28 1000.5 1000.2 6.0
23/07:12am 15.4 12.6 13.1 86 1.3 W 20 52 11 28 1000.4 1000.1 5.6
23/07:00am 16.1 13.8 12.9 81 1.8 WNW 17 35 9 19 999.8 999.5 5.4
23/06:30am 15.5 14.2 13.6 88 1.1 WNW 13 24 7 13 999.7 999.4 5.4
23/06:00am 15.5 14.3 13.9 90 0.9 WNW 13 20 7 11 999.5 999.3 5.4
23/05:30am 15.4 14.8 14.5 94 0.5 WNW 11 20 6 11 999.4 999.2 5.4
23/05:00am 15.3 14.3 14.6 96 0.4 WNW 13 22 7 12 999.1 998.9 4.2
23/04:30am 15.3 14.6 13.3 88 1.1 NNW 9 15 5 8 998.9 998.7 2.2
23/04:00am 15.3 15.2 13.3 88 1.1 NW 6 11 3 6 999.4 999.2 2.2
23/03:30am 15.3 15.7 13.7 90 0.9 NNW 4 7 2 4 999.5 999.3 2.2
23/03:00am 15.2 15.2 14.1 93 0.6 W 7 15 4 8 1000.0 999.7 2.2
23/02:30am 15.1 14.6 13.9 92 0.7 W 9 15 5 8 1000.3 1000.0 2.2
23/02:00am 16.6 15.4 12.8 78 2.1 W 11 24 6 13 1000.6 1000.3 0.2
23/01:30am 16.6 14.7 11.9 74 2.6 WSW 13 20 7 11 1000.9 1000.6 0.0
23/01:00am 17.0 13.5 12.1 73 2.7 W 22 39 12 21 1001.3 1001.0 0.0
23/12:30am 16.2 15.3 11.2 72 2.7 NNW 7 15 4 8 1001.1 1000.8 0.0
23/12:00am 16.3 13.4 12.9 80 1.9 W 20 37 11 20 1002.0 1001.7 0.0
 
Date/Time
CDT
Temp
°C
App
Temp
°C
Dew
Point
°C
Rel
Hum
%
Delta-T
°C
Wind Press
QNH
hPa
Press
MSL
hPa
Rain since
9am
mm
Dir  Spd
km/h
Gust
km/h
Spd
kts
Gust
kts
22/11:30pm 18.0 16.4 12.9 72 2.9 W 13 22 7 12 1001.6 1001.3 0.0
22/11:00pm 18.5 17.8 12.0 66 3.6 W 7 15 4 8 1001.4 1001.1 0.0
22/10:30pm 18.4 17.7 13.1 71 3.0 WSW 9 17 5 9 1001.8 1001.5 0.0
22/10:00pm 19.5 17.5 10.0 54 5.1 W 11 17 6 9 1001.4 1001.1 0.0
22/09:30pm 19.2 17.6 10.3 56 4.8 WNW 9 15 5 8 1001.4 1001.1 0.0
22/09:00pm 19.0 17.0 10.3 57 4.7 WSW 11 20 6 11 1001.0 1000.7 0.0
22/08:30pm 19.0 16.7 10.3 57 4.7 WSW 13 22 7 12 1000.7 1000.4 0.0
22/08:00pm 19.2 17.2 10.3 56 4.8 WSW 11 20 6 11 1000.4 1000.1 0.0
22/07:30pm 19.3 16.4 9.8 54 5.1 WSW 15 26 8 14 1000.3 1000.0 0.0
22/07:00pm 19.5 17.0 9.8 53 5.2 WSW 13 28 7 15 999.9 999.6 0.0
22/06:30pm 19.7 16.7 10.5 55 5.0 WSW 17 32 9 17 1000.3 1000.0 0.0
22/06:00pm 19.5 17.3 10.9 57 4.7 SW 13 20 7 11 999.8 999.5 0.0
22/05:30pm 20.1 18.5 12.9 63 4.1 WSW 13 22 7 12 1000.2 999.9 0.0
22/05:00pm 20.5 19.4 13.0 62 4.3 WSW 11 19 6 10 1000.4 1000.1 0.0
22/04:30pm 21.5 19.3 12.1 55 5.3 WNW 15 26 8 14 1000.7 1000.4 0.0
22/04:00pm 21.0 19.1 11.9 56 5.1 W 13 22 7 12 1001.0 1000.7 0.0
22/03:30pm 21.7 20.9 11.8 53 5.6 W 7 13 4 7 1001.2 1000.9 0.0
22/03:00pm 21.5 19.1 11.5 53 5.6 W 15 22 8 12 1001.8 1001.5 0.0
22/02:30pm 22.6 20.6 11.4 49 6.3 WSW 13 24 7 13 1001.6 1001.3 0.0
22/02:00pm 23.5 20.3 9.8 41 7.5 WSW 17 28 9 15 1001.8 1001.5 0.0
22/01:30pm 24.4 21.5 11.1 43 7.5 W 17 33 9 18 1002.0 1001.7 0.0
22/01:00pm 22.5 20.2 11.9 51 6.0 SW 15 24 8 13 1001.9 1001.6 0.0
22/12:30pm 22.3 20.8 14.1 59 4.8 SW 15 26 8 14 1002.1 1001.8 0.0
22/12:00pm 23.6 21.9 15.7 61 4.8 WSW 19 28 10 15 1001.8 1001.5 0.0
22/11:30am 23.0 21.3 14.8 60 4.9 WSW 17 28 9 15 1001.4 1001.1 0.0
22/11:00am 24.8 21.7 12.3 45 7.2 WSW 20 30 11 16 1001.0 1000.7 0.0
22/10:30am 26.9 24.1 8.7 31 10.0 WNW 13 24 7 13 1000.6 1000.3 0.0
22/10:00am 22.8 20.4 11.4 48 6.4 WSW 15 26 8 14 1000.7 1000.4 0.0
22/09:30am 25.3 22.2 7.4 32 9.5 WNW 13 20 7 11 1000.4 1000.1 0.0
22/09:00am 24.8 21.8 6.1 30 9.7 NNW 11 17 6 9 1000.0 999.7 0.0
22/08:30am 24.6 21.3 4.5 27 10.1 N 11 22 6 12 1000.0 999.7 0.0
22/08:00am 24.5 21.6 4.9 28 9.9 N 9 17 5 9 1000.2 999.9 0.0
22/07:30am 24.7 21.0 6.5 31 9.5 NNE 15 22 8 12 999.9 999.6 0.0
22/07:00am 24.4 21.5 6.3 31 9.3 NNE 11 24 6 13 999.5 999.3 0.0
22/06:30am 23.7 21.2 6.5 33 8.9 NNE 9 19 5 10 999.7 999.4 0.0
22/06:00am 22.9 21.2 7.5 37 8.1 NE 6 13 3 7 999.8 999.5 0.0
22/05:30am 22.7 20.7 6.9 36 8.2 NE 7 13 4 7 999.9 999.6 0.0
22/05:00am 22.1 20.8 7.6 39 7.5 NE 4 9 2 5 999.9 999.6 0.0
22/04:30am 22.2 20.4 8.0 40 7.5 ENE 7 13 4 7 1000.3 1000.0 0.0
22/04:00am 22.4 21.1 9.3 43 7.0 NE 6 11 3 6 1000.9 1000.6 0.0
22/03:30am 22.9 21.2 7.5 37 8.1 N 6 11 3 6 1001.3 1001.0 0.0
22/03:00am 24.4 21.8 6.0 30 9.5 NNW 9 17 5 9 1001.0 1000.7 0.0
22/02:30am 25.6 21.9 4.7 26 10.6 N 13 30 7 16 1000.9 1000.6 0.0
22/02:00am 24.7 22.4 5.9 30 9.6 NNE 7 11 4 6 1001.2 1000.9 0.0
22/01:30am 24.7 22.6 6.5 31 9.5 NE 7 13 4 7 1001.7 1001.4 0.0
22/01:00am 24.9 22.4 6.5 30 9.6 NE 9 17 5 9 1002.1 1001.8 0.0
22/12:30am 24.1 22.1 6.9 33 9.0 NE 7 11 4 6 1002.7 1002.4 0.0
22/12:00am 21.4 20.7 10.0 48 6.2 NNE 4 6 2 3 1003.3 1003.0 0.0
 
Date/Time
CDT
Temp
°C
App
Temp
°C
Dew
Point
°C
Rel
Hum
%
Delta-T
°C
Wind Press
QNH
hPa
Press
MSL
hPa
Rain since
9am
mm
Dir  Spd
km/h
Gust
km/h
Spd
kts
Gust
kts
21/11:30pm 21.0 21.5 11.5 54 5.3 CALM 0 0 0 0 1003.7 1003.4 0.0
21/11:00pm 21.0 21.5 11.5 54 5.3 CALM 0 0 0 0 1004.0 1003.7 0.0
21/10:30pm 21.4 21.5 10.2 49 6.1 CALM 0 0 0 0 1004.3 1004.0 0.0
21/10:00pm 22.0 22.1 10.1 46 6.5 CALM 0 6 0 3 1004.5 1004.2 0.0
21/09:30pm 22.6 22.9 10.9 47 6.5 CALM 0 0 0 0 1004.7 1004.4 0.0
21/09:00pm 23.6 22.6 9.0 39 7.9 ESE 4 7 2 4 1004.8 1004.5 0.0
21/08:30pm 24.5 24.1 8.3 35 8.7 CALM 0 0 0 0 1004.9 1004.6 0.0
21/08:00pm 25.5 23.8 7.4 31 9.6 NNE 6 9 3 5 1005.1 1004.9 0.0
21/07:30pm 25.9 23.7 6.4 28 10.2 N 7 13 4 7 1005.4 1005.2 0.0
21/07:00pm 26.2 23.5 5.4 26 10.7 NNW 9 13 5 7 1005.4 1005.2 0.0
21/06:30pm 26.8 24.6 5.3 25 11.1 N 6 15 3 8 1005.8 1005.6 0.0
21/06:00pm 26.2 22.6 2.8 22 11.5 NNW 11 17 6 9 1006.4 1006.2 0.0
21/05:30pm 27.2 23.8 4.1 22 11.7 NW 11 20 6 11 1006.9 1006.7 0.0
21/05:00pm 27.4 23.7 6.3 26 11.1 WNW 15 33 8 18 1007.0 1006.8 0.0
21/04:30pm 27.0 23.8 8.5 31 10.1 WNW 15 30 8 16 1007.5 1007.3 0.0
21/04:00pm 27.1 24.4 8.9 31 10.0 NW 13 20 7 11 1008.1 1007.9 0.0
21/03:30pm 26.8 23.3 7.0 28 10.5 NW 15 22 8 12 1008.5 1008.3 0.0
21/03:00pm 25.2 23.6 10.3 39 8.3 WNW 9 13 5 7 1009.1 1008.9 0.0
21/02:30pm 24.4 22.3 11.1 43 7.5 WSW 13 24 7 13 1009.6 1009.4 0.0
21/02:00pm 24.4 22.3 11.0 43 7.5 W 13 22 7 12 1009.7 1009.5 0.0
21/01:30pm 23.5 21.4 11.2 46 6.9 WSW 13 24 7 13 1010.2 1010.0 0.0
21/01:00pm 24.8 23.1 9.7 38 8.3 NW 9 17 5 9 1010.5 1010.3 0.0
21/12:30pm 23.6 22.0 10.2 42 7.4 NNW 9 19 5 10 1010.9 1010.7 0.0
21/12:00pm 22.1 20.7 9.7 45 6.7 N 7 15 4 8 1011.1 1010.9 0.0
21/11:30am 21.1 19.4 10.0 49 6.0 NE 9 17 5 9 1011.6 1011.4 0.0
21/11:00am 20.3 18.7 10.1 52 5.5 NNE 9 15 5 8 1011.9 1011.7 0.0
21/10:30am 19.5 18.4 9.8 53 5.2 NNE 6 13 3 7 1012.0 1011.8 0.0
21/10:00am 18.9 17.9 10.4 57 4.6 ENE 6 13 3 7 1012.5 1012.3 0.0
21/09:30am 18.0 16.9 10.8 63 3.9 NNE 7 11 4 6 1012.8 1012.6 0.0
21/09:00am 17.4 15.8 10.3 63 3.8 NE 9 13 5 7 1012.9 1012.7 0.0
21/08:30am 17.1 16.0 10.6 65 3.5 E 7 13 4 7 1012.9 1012.7 0.0
21/08:00am 16.5 16.0 10.7 68 3.1 NE 4 9 2 5 1013.0 1012.8 0.0
21/07:30am 16.3 16.5 10.7 69 3.0 CALM 0 0 0 0 1012.8 1012.6 0.0
21/07:00am 16.1 16.4 10.9 71 2.8 CALM 0 0 0 0 1012.7 1012.5 0.0
21/06:30am 15.9 16.1 10.6 71 2.8 CALM 0 0 0 0 1012.7 1012.5 0.0
21/06:00am 15.9 16.2 10.8 71 2.7 CALM 0 0 0 0 1012.5 1012.3 0.0
21/05:30am 15.9 16.3 11.1 73 2.6 CALM 0 0 0 0 1012.6 1012.4 0.0
21/05:00am 15.9 15.8 10.8 71 2.7 S 2 7 1 4 1012.6 1012.4 0.0
21/04:30am 16.0 15.1 10.5 70 2.9 S 6 9 3 5 1012.6 1012.4 0.0
21/04:00am 16.0 15.1 10.7 71 2.8 SSE 6 9 3 5 1012.6 1012.4 0.0
21/03:30am 16.0 15.1 10.7 71 2.8 S 6 9 3 5 1012.8 1012.6 0.0
21/03:00am 16.2 15.4 11.0 71 2.8 SSE 6 11 3 6 1012.7 1012.5 0.0
21/02:30am 16.2 15.4 11.0 71 2.8 S 6 9 3 5 1012.8 1012.6 0.0
21/02:00am 16.2 15.2 11.0 71 2.8 SSE 7 11 4 6 1012.8 1012.6 0.0
21/01:30am 16.3 15.3 10.9 70 2.9 S 7 13 4 7 1013.2 1013.0 0.0
21/01:00am 16.3 15.5 10.9 70 2.9 S 6 9 3 5 1013.4 1013.2 0.0
21/12:30am 16.4 15.4 11.0 70 2.9 SSE 7 13 4 7 1013.4 1013.2 0.0
21/12:00am 16.5 15.0 10.7 68 3.1 SSE 9 15 5 8 1013.7 1013.5 0.0
 
Date/Time
CDT
Temp
°C
App
Temp
°C
Dew
Point
°C
Rel
Hum
%
Delta-T
°C
Wind Press
QNH
hPa
Press
MSL
hPa
Rain since
9am
mm
Dir  Spd
km/h
Gust
km/h
Spd
kts
Gust
kts
20/11:30pm 16.5 14.6 10.5 67 3.2 S 11 20 6 11 1013.8 1013.6 0.0
20/11:00pm 16.7 15.8 10.7 67 3.2 SSW 6 11 3 6 1013.9 1013.7 0.0
20/10:30pm 16.6 15.1 10.6 67 3.2 S 9 17 5 9 1014.0 1013.8 0.0
20/10:00pm 16.7 15.3 10.9 68 3.1 S 9 15 5 8 1013.6 1013.4 0.0
20/09:30pm 16.9 15.4 10.5 66 3.4 S 9 19 5 10 1013.6 1013.4 0.0
20/09:00pm 17.1 15.0 11.0 67 3.3 S 13 26 7 14 1013.3 1013.1 0.0
20/08:30pm 17.3 15.4 10.6 64 3.6 SSW 11 24 6 13 1012.9 1012.7 0.0
20/08:00pm 17.7 15.0 10.4 62 3.9 SSE 15 28 8 15 1012.5 1012.3 0.0
20/07:30pm 18.1 15.9 10.7 62 4.0 S 13 20 7 11 1012.4 1012.2 0.0
20/07:00pm 18.5 16.3 10.7 60 4.2 S 13 19 7 10 1012.2 1012.0 0.0
20/06:30pm 18.7 16.6 11.2 61 4.1 SSW 13 24 7 13 1012.0 1011.8 0.0
20/06:00pm 19.1 17.0 11.3 60 4.3 S 13 22 7 12 1011.9 1011.7 0.0
20/05:30pm 19.0 16.9 11.3 61 4.2 S 13 28 7 15 1011.9 1011.7 0.0
20/05:00pm 18.5 15.8 11.6 64 3.8 S 17 28 9 15 1011.9 1011.7 0.0
20/04:30pm 18.3 16.5 12.0 66 3.5 S 13 20 7 11 1012.0 1011.8 0.0
20/04:00pm 18.3 16.5 12.0 66 3.5 S 13 26 7 14 1012.0 1011.8 0.0
20/03:30pm 18.3 16.6 12.4 68 3.3 S 13 22 7 12 1012.0 1011.8 0.0
20/03:00pm 18.5 16.5 12.6 68 3.3 S 15 28 8 15 1012.1 1011.9 0.0
20/02:30pm 18.8 17.1 12.4 66 3.6 S 13 24 7 13 1012.0 1011.8 0.0
20/02:00pm 18.9 17.7 12.7 67 3.5 S 11 20 6 11 1011.9 1011.7 0.0
20/01:30pm 19.1 16.3 12.7 66 3.6 S 19 30 10 16 1011.8 1011.6 0.0
20/01:00pm 18.7 17.1 12.8 68 3.3 S 13 24 7 13 1011.8 1011.6 0.0
20/12:30pm 18.6 16.7 12.9 69 3.2 SSW 15 26 8 14 1011.9 1011.7 0.0

Latest Capital City Observations: Canberra | Sydney | Melbourne | Brisbane | Adelaide | Perth | Hobart | Darwin

Other formats

Comma delimited format used in spreadsheet applications
http://www.bom.gov.au/fwo/IDS60901/IDS60901.94675.axf

JavaScript Object Notation format (JSON) in row-major order
http://www.bom.gov.au/fwo/IDS60901/IDS60901.94675.json

Data quality

Most of these data are generated automatically and are frequently updated. Quality checks on data are not normally performed. It is possible for incorrect values to appear. Refer to information at About Latest Weather Observations and please check the disclaimer before using these data.